Time;durP1;ratioP1;P1;durP2;ratioP2;P2;SDS_P1;SDS_P2;PMS_P1;PMS_P2;Temp;Humidity;BMP_temperature;BMP_pressure;BME280_temperature;BME280_humidity;BME280_pressure;Samples;Min_cycle;Max_cycle;Signal;HPM_P1;HPM_P2
2023/01/31 07:35:38;;;;;;;8.13;2.17;;;5.80;99.90;7.00;101997.00;;;;6266926;22;1380078;-67
2023/01/31 07:38:36;;;;;;;4.13;1.63;;;5.90;99.90;7.00;102083.00;;;;6276131;22;20175;-68
2023/01/31 07:41:32;;;;;;;0.80;0.80;;;5.90;99.90;8.00;102077.00;;;;6219293;22;20229;-69
2023/01/31 07:44:30;;;;;;;0.30;0.30;;;6.20;99.90;7.70;101989.00;;;;6244851;22;20171;-66
2023/01/31 07:48:01;;;;;;;0.23;0.23;;;6.40;99.90;8.20;102038.00;;;;6219703;22;20200;-68
2023/01/31 07:51:10;;;;;;;6.60;3.10;;;6.30;99.90;7.60;102097.00;;;;6254561;22;20206;-68
2023/01/31 07:54:19;;;;;;;0.40;0.40;;;6.40;99.90;7.60;102078.00;;;;6250744;22;20215;-68
2023/01/31 07:57:32;;;;;;;0.20;0.20;;;6.20;99.90;8.60;102079.00;;;;6225332;22;20483;-68
2023/01/31 08:03:50;;;;;;;10.00;3.47;;;6.40;99.90;7.50;102083.00;;;;6254531;22;20195;-66
2023/01/31 08:06:58;;;;;;;0.33;0.33;;;6.40;99.90;8.60;102077.00;;;;6189461;23;20165;-66
2023/01/31 08:09:52;;;;;;;0.30;0.30;;;6.50;99.90;8.60;102082.00;;;;6188962;23;20495;-66
2023/01/31 08:12:42;;;;;;;1.23;1.13;;;6.70;99.90;8.40;102060.00;;;;6188608;23;20174;-66
2023/01/31 08:15:41;;;;;;;0.40;0.40;;;6.60;99.90;7.00;102051.00;;;;6189088;23;20155;-66
2023/01/31 08:18:57;;;;;;;3.60;1.00;;;6.50;99.90;7.60;102057.00;;;;6211191;23;20595;-66
2023/01/31 08:21:52;;;;;;;1.23;1.07;;;6.40;99.90;8.00;102045.00;;;;6213748;23;20160;-66
2023/01/31 08:24:50;;;;;;;1.47;1.30;;;6.50;99.90;7.50;102027.00;;;;6210762;23;20173;-66
2023/01/31 08:27:30;;;;;;;2.93;1.17;;;6.40;99.90;7.60;102035.00;;;;6211285;23;20162;-66
2023/01/31 08:30:45;;;;;;;6.30;2.03;;;6.40;99.90;8.20;102045.00;;;;6214153;23;20521;-67
2023/01/31 08:33:38;;;;;;;0.20;0.20;;;6.50;99.90;8.60;102049.00;;;;6187157;23;20544;-67
2023/01/31 08:36:30;;;;;;;0.80;0.80;;;6.70;99.90;7.70;101955.00;;;;6197510;23;20178;-67
2023/01/31 08:39:27;;;;;;;2.27;1.90;;;6.60;99.90;7.80;102039.00;;;;6159382;23;20162;-67
2023/01/31 08:42:02;;;;;;;0.30;0.30;;;6.60;99.90;8.40;102018.00;;;;6158858;23;20239;-67
2023/01/31 08:45:03;;;;;;;1.20;1.10;;;6.70;99.90;7.70;101926.00;;;;6195043;23;20161;-67
2023/01/31 08:48:13;;;;;;;1.40;1.30;;;6.70;99.90;7.80;102016.00;;;;6194568;23;20155;-67
2023/01/31 08:51:11;;;;;;;3.50;1.27;;;6.70;99.90;7.80;101999.00;;;;6198012;23;20468;-67
2023/01/31 08:53:39;;;;;;;0.43;0.43;;;6.60;99.90;8.70;101992.00;;;;6201482;23;20188;-68
2023/01/31 08:56:45;;;;;;;2.77;1.47;;;6.80;99.90;9.10;102033.00;;;;6220359;23;20172;-67
2023/01/31 08:59:35;;;;;;;5.30;2.13;;;7.40;99.90;7.10;101997.00;;;;6197633;23;20160;-67
2023/01/31 09:02:33;;;;;;;16.40;3.73;;;6.70;99.90;7.20;102017.00;;;;6197496;23;20168;-66
2023/01/31 09:05:38;;;;;;;3.53;2.30;;;6.70;99.90;7.40;102009.00;;;;6245989;23;20158;-66
2023/01/31 09:08:52;;;;;;;15.63;4.17;;;6.50;99.90;7.60;102022.00;;;;6246326;23;20228;-66
2023/01/31 09:11:45;;;;;;;5.97;1.57;;;6.60;99.90;6.90;101967.00;;;;6194854;23;20632;-66
2023/01/31 09:14:43;;;;;;;5.57;2.63;;;6.40;99.90;7.50;102012.00;;;;6219796;23;20147;-66
2023/01/31 09:17:39;;;;;;;4.23;1.90;;;6.60;99.90;7.70;102018.00;;;;6219150;23;20160;-66
2023/01/31 09:20:34;;;;;;;1.97;1.53;;;6.70;99.90;7.20;102020.00;;;;6210669;23;20166;-65
2023/01/31 09:23:43;;;;;;;3.37;3.07;;;6.50;99.90;7.20;102012.00;;;;6219653;23;20229;-65
2023/01/31 09:26:32;;;;;;;1.60;1.53;;;6.50;99.90;8.10;102017.00;;;;6220077;23;20137;-65
2023/01/31 09:29:42;;;;;;;5.33;2.00;;;6.70;99.90;7.60;102001.00;;;;6124119;23;20169;-66
2023/01/31 09:32:20;;;;;;;2.40;2.27;;;6.70;99.90;7.90;101993.00;;;;6176036;23;20615;-66
2023/01/31 09:38:27;;;;;;;1.83;1.80;;;6.80;99.90;8.50;102005.00;;;;6254116;22;20169;-66
2023/01/31 09:41:16;;;;;;;0.20;0.20;;;7.00;99.90;8.90;101991.00;;;;6275242;22;20156;-65
2023/01/31 09:44:11;;;;;;;1.30;1.20;;;7.00;99.90;9.30;101998.00;;;;6276927;22;20561;-66
2023/01/31 09:46:45;;;;;;;5.97;2.00;;;7.30;99.90;9.20;102008.00;;;;6242702;22;20245;-65
2023/01/31 09:49:45;;;;;;;1.43;1.43;;;7.60;99.90;8.60;102010.00;;;;6224302;22;20585;-65
2023/01/31 09:52:27;;;;;;;5.13;1.53;;;7.30;99.90;7.90;102005.00;;;;6223373;22;20202;-66
2023/01/31 09:55:07;;;;;;;1.90;1.03;;;7.10;99.90;9.00;101982.00;;;;6277007;22;20203;-66
2023/01/31 09:58:11;;;;;;;1.50;1.40;;;7.40;99.90;9.00;101926.00;;;;6247730;22;20167;-65
2023/01/31 10:01:28;;;;;;;8.43;4.77;;;7.60;99.90;7.50;102011.00;;;;6275450;22;20173;-63
2023/01/31 10:04:27;;;;;;;0.70;0.70;;;7.10;99.90;8.00;102012.00;;;;6211787;23;20212;-63
2023/01/31 10:07:06;;;;;;;0.50;0.50;;;7.00;99.90;8.70;102010.00;;;;6212185;23;20587;-63
2023/01/31 10:09:36;;;;;;;6.33;3.37;;;7.30;99.90;8.30;101942.00;;;;6212671;23;20633;-63
2023/01/31 10:12:17;;;;;;;13.63;3.97;;;7.40;99.90;8.60;102017.00;;;;6212737;23;20292;-63
2023/01/31 10:15:15;;;;;;;1.97;1.87;;;7.40;99.90;7.80;101917.00;;;;6211819;23;20158;-64
2023/01/31 10:18:21;;;;;;;6.13;1.73;;;7.40;99.90;8.50;102003.00;;;;6213085;23;20185;-64
2023/01/31 10:33:59;;;;;;;1.27;1.20;;;7.30;99.90;9.20;101939.00;;;;5070457;28;20600;-64
2023/01/31 10:36:31;;;;;;;32.97;2.13;;;8.00;99.90;8.90;101946.00;;;;5036497;28;20672;-65
2023/01/31 10:39:37;;;;;;;14.03;1.87;;;8.10;99.90;10.40;101966.00;;;;5042339;28;20172;-68
2023/01/31 10:42:38;;;;;;;6.53;2.25;;;8.50;99.90;9.60;101981.00;;;;5041093;28;20421;-65
2023/01/31 10:45:52;;;;;;;2.57;1.63;;;8.40;99.90;8.60;101970.00;;;;5049553;28;20184;-65
2023/01/31 10:48:53;;;;;;;6.73;3.37;;;8.00;99.90;8.30;101968.00;;;;5065573;28;20271;-65
2023/01/31 10:51:35;;;;;;;1.80;1.57;;;7.80;99.90;9.30;101912.00;;;;5045932;28;20209;-65
2023/01/31 10:55:15;;;;;;;3.30;1.63;;;8.00;99.90;9.20;101971.00;;;;5049857;28;20412;-65
2023/01/31 10:57:46;;;;;;;3.13;1.53;;;8.10;99.90;9.50;101892.00;;;;5007945;28;20200;-65
2023/01/31 11:00:37;;;;;;;6.13;2.10;;;8.10;99.90;8.90;101971.00;;;;5010424;28;20187;-65
2023/01/31 11:03:23;;;;;;;2.90;1.87;;;8.20;99.90;8.80;101954.00;;;;5020782;28;20281;-65
2023/01/31 11:06:05;;;;;;;2.00;1.43;;;8.10;99.90;9.30;101980.00;;;;5032389;28;20182;-65
2023/01/31 11:08:55;;;;;;;3.80;2.87;;;8.20;99.90;9.30;101984.00;;;;5028084;28;20913;-65
2023/01/31 11:11:34;;;;;;;2.57;2.17;;;8.30;99.90;9.70;101988.00;;;;5027317;28;20211;-64
2023/01/31 11:14:17;;;;;;;1.87;1.60;;;8.60;99.90;9.50;101952.00;;;;5010317;28;20203;-65
2023/01/31 11:17:09;;;;;;;1.83;1.73;;;8.40;99.90;9.40;101950.00;;;;5033013;28;20265;-66
2023/01/31 11:19:58;;;;;;;6.90;1.80;;;8.40;99.90;10.10;101955.00;;;;5011736;28;20273;-66
2023/01/31 11:23:04;;;;;;;2.90;0.70;;;8.80;99.90;10.40;101974.00;;;;5026912;28;20211;-66
2023/01/31 11:26:09;;;;;;;1.30;1.03;;;9.00;99.90;9.40;101965.00;;;;5040404;28;20196;-66
2023/01/31 11:29:19;;;;;;;0.40;0.40;;;8.90;99.90;9.80;101936.00;;;;5046484;28;20675;-66
2023/01/31 11:32:26;;;;;;;5.80;2.37;;;8.70;99.90;9.20;101933.00;;;;5029156;28;20222;-66
2023/01/31 11:35:30;;;;;;;6.73;1.73;;;8.80;99.90;9.60;101856.00;;;;5047618;28;20192;-66
2023/01/31 11:38:04;;;;;;;6.70;2.37;;;8.80;99.90;10.10;101955.00;;;;5041024;28;20264;-66
2023/01/31 11:40:38;;;;;;;1.47;1.37;;;9.10;99.90;10.30;101865.00;;;;5047347;28;20191;-66
2023/01/31 11:43:32;;;;;;;22.27;2.20;;;9.20;99.90;10.20;101939.00;;;;5048720;28;20649;-66
2023/01/31 11:46:20;;;;;;;9.47;3.80;;;9.20;99.90;10.30;101933.00;;;;5024326;28;20199;-66
2023/01/31 11:49:11;;;;;;;6.93;3.43;;;9.20;99.90;10.10;101937.00;;;;5034245;28;20196;-67
2023/01/31 11:51:52;;;;;;;7.87;2.47;;;9.10;99.90;10.10;101860.00;;;;5033138;28;20783;-66
2023/01/31 11:55:01;;;;;;;2.20;1.73;;;9.10;99.90;10.50;101940.00;;;;5034253;28;20638;-65
2023/01/31 11:57:46;;;;;;;7.87;2.03;;;9.10;99.90;10.20;101928.00;;;;5032881;28;20184;-65
2023/01/31 12:00:27;;;;;;;3.10;1.13;;;9.10;99.90;10.50;101931.00;;;;5029433;28;20187;-64
2023/01/31 12:03:14;;;;;;;1.07;1.03;;;9.20;99.90;10.90;101945.00;;;;5033300;28;20611;-65
2023/01/31 12:05:49;;;;;;;2.80;1.70;;;9.30;99.90;10.80;101941.00;;;;5033329;28;20194;-65
2023/01/31 12:08:46;;;;;;;3.40;2.87;;;9.30;99.90;11.00;101933.00;;;;5027487;28;20188;-65
2023/01/31 12:11:51;;;;;;;1.47;1.37;;;9.40;99.90;11.40;101892.00;;;;5033701;28;20191;-65
2023/01/31 12:14:38;;;;;;;6.53;1.47;;;9.50;99.90;10.60;101938.00;;;;5028982;28;20203;-65
2023/01/31 12:17:05;;;;;;;2.17;2.03;;;9.40;99.90;11.00;101929.00;;;;5033257;28;20190;-65
2023/01/31 12:20:20;;;;;;;5.53;1.10;;;9.50;99.90;10.80;101936.00;;;;5021168;28;20286;-65
2023/01/31 12:23:21;;;;;;;1.83;1.73;;;9.60;99.90;10.90;101946.00;;;;5032249;28;20208;-65
2023/01/31 12:26:23;;;;;;;2.73;2.53;;;9.60;99.90;11.50;101942.00;;;;5034226;28;20190;-65
2023/01/31 12:29:24;;;;;;;7.00;0.97;;;9.60;99.90;10.70;101925.00;;;;5006445;28;20191;-66
2023/01/31 12:32:22;;;;;;;1.53;1.03;;;9.50;99.90;11.00;101937.00;;;;4996011;28;20596;-65
2023/01/31 12:35:16;;;;;;;5.50;1.20;;;9.60;99.90;10.90;101939.00;;;;5007999;28;20293;-65
2023/01/31 12:38:12;;;;;;;0.80;0.80;;;9.50;99.90;11.60;101944.00;;;;4994279;28;20789;-65
2023/01/31 12:41:12;;;;;;;5.47;2.20;;;9.70;99.90;10.50;101929.00;;;;4995335;28;20189;-65
2023/01/31 12:43:47;;;;;;;1.80;1.70;;;9.70;99.90;10.50;101922.00;;;;5010433;28;20204;-65
2023/01/31 12:46:49;;;;;;;4.80;3.07;;;9.30;99.90;9.80;101911.00;;;;5034219;28;20189;-65
2023/01/31 12:50:05;;;;;;;4.03;2.03;;;9.00;99.90;9.90;101914.00;;;;5034061;28;20190;-65
2023/01/31 12:52:50;;;;;;;1.07;0.97;;;8.80;99.90;9.50;101914.00;;;;5031248;28;20208;-65
2023/01/31 12:55:18;;;;;;;8.47;2.43;;;8.70;99.90;9.70;101916.00;;;;5033266;28;20193;-66
2023/01/31 12:57:53;;;;;;;0.33;0.33;;;8.70;99.90;10.00;101916.00;;;;5032060;28;20269;-65
2023/01/31 13:00:43;;;;;;;11.97;2.50;;;8.70;99.90;9.20;101917.00;;;;5034590;28;20224;-65
2023/01/31 13:03:58;;;;;;;4.27;3.30;;;8.60;99.90;9.70;101922.00;;;;5016666;28;20199;-65
2023/01/31 13:07:20;;;;;;;5.23;3.10;;;8.60;99.90;10.00;101921.00;;;;5020723;28;20261;-65
2023/01/31 13:10:27;;;;;;;8.27;2.83;;;8.60;99.90;9.70;101931.00;;;;5020181;28;20179;-65
2023/01/31 13:13:06;;;;;;;4.07;1.60;;;8.60;99.90;9.80;101924.00;;;;5027852;28;20686;-65
2023/01/31 13:16:49;;;;;;;7.20;4.73;;;8.60;99.90;9.70;101931.00;;;;5023454;28;20273;-65
2023/01/31 13:19:52;;;;;;;1.43;1.33;;;8.70;99.90;10.20;101917.00;;;;5022877;28;20227;-66
2023/01/31 13:22:44;;;;;;;1.70;1.60;;;8.80;99.90;10.10;101897.00;;;;4988234;28;20219;-66
2023/01/31 13:26:07;;;;;;;3.90;2.83;;;8.80;99.90;9.60;101920.00;;;;4995265;28;20200;-66
2023/01/31 13:29:00;;;;;;;1.23;1.13;;;8.70;99.90;9.60;101901.00;;;;4895222;29;20639;-66
2023/01/31 13:31:46;;;;;;;7.27;2.93;;;8.60;99.90;9.50;101911.00;;;;4880192;29;20231;-65
2023/01/31 13:34:39;;;;;;;2.63;2.40;;;8.60;99.90;9.50;101909.00;;;;5018356;28;20650;-65
2023/01/31 13:37:54;;;;;;;13.37;3.77;;;8.60;99.90;9.40;101906.00;;;;5041419;28;20249;-65
2023/01/31 13:40:48;;;;;;;5.10;3.13;;;8.70;99.90;9.50;101902.00;;;;5016673;28;20185;-65
2023/01/31 13:43:24;;;;;;;0.60;0.60;;;8.70;99.90;9.80;101897.00;;;;5047005;28;20206;-66
2023/01/31 13:46:03;;;;;;;10.17;4.87;;;8.80;99.90;9.60;101830.00;;;;5020994;28;20324;-66
2023/01/31 13:49:02;;;;;;;3.37;2.30;;;8.80;99.90;9.50;101896.00;;;;5027983;28;20192;-66
2023/01/31 13:51:55;;;;;;;3.10;1.77;;;8.70;99.90;9.70;101885.00;;;;5014133;28;20729;-66
2023/01/31 13:55:25;;;;;;;2.77;2.57;;;8.80;99.90;10.40;101884.00;;;;5032244;28;20175;-65
2023/01/31 13:58:34;;;;;;;7.63;1.83;;;8.90;99.90;9.70;101877.00;;;;5031648;28;20199;-66
2023/01/31 14:01:23;;;;;;;1.63;1.30;;;9.10;99.90;9.90;101871.00;;;;5059995;28;20182;-65
2023/01/31 14:04:31;;;;;;;19.33;5.63;;;8.90;99.90;10.10;101856.00;;;;5021687;28;20184;-65
2023/01/31 14:07:30;;;;;;;4.47;2.63;;;9.10;99.90;10.30;101860.00;;;;5023000;28;20184;-65
2023/01/31 14:10:14;;;;;;;1.63;1.27;;;9.10;99.90;10.30;101852.00;;;;5031146;28;20188;-66
2023/01/31 14:13:21;;;;;;;4.23;2.13;;;9.20;99.90;10.30;101857.00;;;;5031580;28;20679;-66
2023/01/31 14:15:56;;;;;;;9.77;3.20;;;9.30;99.90;10.20;101851.00;;;;5030968;28;20636;-65
2023/01/31 14:19:17;;;;;;;1.77;1.67;;;9.40;99.90;11.20;101871.00;;;;5059849;28;20227;-65
2023/01/31 14:22:33;;;;;;;9.63;3.10;;;9.60;99.90;11.10;101878.00;;;;5022460;28;20659;-66
2023/01/31 14:25:13;;;;;;;6.80;2.80;;;9.80;99.90;10.70;101794.00;;;;5016214;28;20213;-65
2023/01/31 14:27:47;;;;;;;2.63;1.73;;;9.70;99.90;11.20;101875.00;;;;5030547;28;20638;-65
2023/01/31 14:30:33;;;;;;;1.97;1.67;;;9.70;99.90;11.00;101881.00;;;;5023535;28;20182;-65
2023/01/31 14:33:11;;;;;;;0.60;0.60;;;9.70;99.90;11.70;101880.00;;;;5021584;28;20587;-66
2023/01/31 14:36:02;;;;;;;0.20;0.20;;;10.00;99.90;11.50;101899.00;;;;5031949;28;20190;-66
2023/01/31 14:38:58;;;;;;;2.60;2.43;;;9.90;99.90;11.10;101901.00;;;;5032186;28;20269;-65
2023/01/31 14:41:32;;;;;;;1.70;1.53;;;9.80;99.90;10.70;101907.00;;;;5032352;28;20186;-66
2023/01/31 14:44:22;;;;;;;5.77;2.23;;;9.70;99.90;10.80;101922.00;;;;5031343;28;20206;-65
2023/01/31 14:47:16;;;;;;;1.00;1.00;;;9.70;99.90;11.30;101918.00;;;;5031886;28;20179;-65
2023/01/31 14:50:19;;;;;;;7.43;2.40;;;9.70;99.90;11.20;101920.00;;;;5032074;28;20588;-65
2023/01/31 14:53:07;;;;;;;2.47;1.17;;;9.90;99.90;11.90;101918.00;;;;5064083;28;20236;-65
2023/01/31 14:55:55;;;;;;;0.70;0.53;;;9.90;99.90;11.80;101844.00;;;;5032936;28;20191;-66
2023/01/31 14:58:33;;;;;;;4.13;2.13;;;10.00;99.90;11.20;101911.00;;;;5032199;28;20653;-65
2023/01/31 15:01:08;;;;;;;1.23;1.13;;;9.90;99.90;11.00;101901.00;;;;5031074;28;20661;-65
2023/01/31 15:03:53;;;;;;;0.93;0.93;;;9.80;99.90;11.50;101926.00;;;;5032927;28;20178;-66
2023/01/31 15:06:36;;;;;;;2.33;1.23;;;9.90;99.90;11.90;101927.00;;;;5027300;28;20269;-65
2023/01/31 15:09:36;;;;;;;0.40;0.40;;;10.00;99.90;11.20;101926.00;;;;5031340;28;20191;-65
2023/01/31 15:12:59;;;;;;;0.50;0.43;;;10.00;99.90;11.80;101927.00;;;;5030563;28;20244;-65
2023/01/31 15:15:45;;;;;;;0.90;0.90;;;10.20;99.90;12.30;101935.00;;;;5030884;28;20189;-66
2023/01/31 15:18:28;;;;;;;1.03;1.03;;;10.30;99.90;12.20;101951.00;;;;5031027;28;20187;-65
2023/01/31 15:21:39;;;;;;;2.70;2.20;;;10.40;99.90;12.20;101952.00;;;;5041310;28;20529;-68
2023/01/31 15:24:52;;;;;;;0.63;0.63;;;10.60;99.90;11.90;101923.00;;;;5024270;28;20234;-65
2023/01/31 15:27:54;;;;;;;1.97;1.80;;;10.40;99.90;11.20;101928.00;;;;5027770;28;20673;-64
2023/01/31 15:30:48;;;;;;;2.30;0.97;;;10.30;99.90;12.10;101945.00;;;;5035596;28;20187;-64
2023/01/31 15:33:51;;;;;;;1.27;0.83;;;10.20;99.90;12.20;101948.00;;;;5037181;28;20211;-64
2023/01/31 15:36:27;;;;;;;3.20;2.40;;;10.40;99.90;11.90;101949.00;;;;4999378;28;20194;-65
2023/01/31 15:39:31;;;;;;;0.30;0.30;;;10.40;99.90;11.00;101927.00;;;;4993756;28;20237;-64
2023/01/31 15:42:45;;;;;;;3.03;1.37;;;10.10;99.90;11.90;101935.00;;;;5011249;28;20208;-64
2023/01/31 15:45:51;;;;;;;15.23;0.90;;;10.10;99.90;12.30;101937.00;;;;5028428;28;20291;-64
2023/01/31 15:48:32;;;;;;;1.40;1.30;;;10.30;99.90;11.90;101949.00;;;;5026740;28;20210;-64
2023/01/31 15:51:41;;;;;;;0.73;0.73;;;10.20;99.90;11.40;101956.00;;;;5034569;28;20198;-65
2023/01/31 15:54:17;;;;;;;3.53;2.67;;;10.10;99.90;12.10;101953.00;;;;5042958;28;20213;-64
2023/01/31 15:57:19;;;;;;;4.60;1.10;;;10.10;99.90;12.00;101955.00;;;;5035020;28;20188;-64
2023/01/31 16:00:31;;;;;;;0.60;0.60;;;10.20;99.90;12.10;101964.00;;;;5034749;28;20687;-64
2023/01/31 16:03:39;;;;;;;1.20;1.00;;;10.10;99.90;11.70;101975.00;;;;5038565;28;20186;-64
2023/01/31 16:06:28;;;;;;;1.60;1.27;;;10.30;99.90;11.30;101965.00;;;;5032580;28;20278;-64
2023/01/31 16:09:33;;;;;;;1.13;1.03;;;10.00;99.90;11.70;101948.00;;;;5034307;28;20650;-64
2023/01/31 16:12:03;;;;;;;4.20;1.40;;;10.00;99.90;11.40;101948.00;;;;5028655;28;20216;-64
2023/01/31 16:14:30;;;;;;;0.50;0.50;;;10.10;99.90;11.60;101977.00;;;;5035632;28;20285;-64
2023/01/31 16:17:36;;;;;;;1.53;0.63;;;10.10;99.90;11.70;101950.00;;;;5017447;28;20191;-64
2023/01/31 16:20:11;;;;;;;2.40;1.43;;;10.00;99.90;11.70;101906.00;;;;5025338;28;20632;-70
2023/01/31 16:23:16;;;;;;;2.57;1.73;;;10.00;99.90;11.80;101954.00;;;;5031629;28;20201;-64
2023/01/31 16:26:04;;;;;;;1.17;1.17;;;10.00;99.90;11.30;101904.00;;;;5017212;28;20186;-64
2023/01/31 16:28:49;;;;;;;0.77;0.73;;;9.90;99.90;11.70;101980.00;;;;5027226;28;20656;-64
2023/01/31 16:31:18;;;;;;;1.50;1.40;;;9.80;99.90;11.40;101983.00;;;;5016867;28;20546;-64
2023/01/31 16:34:44;;;;;;;0.33;0.33;;;9.90;99.90;11.70;101981.00;;;;5032783;28;20183;-64
2023/01/31 16:37:15;;;;;;;0.60;0.60;;;9.90;99.90;12.10;101987.00;;;;5027948;28;20201;-64
2023/01/31 16:39:49;;;;;;;0.60;0.60;;;10.10;99.90;10.90;101987.00;;;;5033999;28;20271;-65
2023/01/31 16:42:15;;;;;;;2.37;2.20;;;9.80;99.90;10.90;101917.00;;;;5033125;28;20193;-64
2023/01/31 16:44:47;;;;;;;3.13;1.03;;;9.70;99.90;11.30;101917.00;;;;5033234;28;20542;-64
2023/01/31 16:47:49;;;;;;;5.97;0.73;;;9.70;99.90;11.70;101993.00;;;;5032550;28;20638;-64
2023/01/31 16:50:22;;;;;;;1.67;1.20;;;10.00;99.90;11.90;101933.00;;;;5033127;28;20191;-64
2023/01/31 16:53:17;;;;;;;0.30;0.30;;;10.00;99.90;12.20;102015.00;;;;5033993;28;20235;-64
2023/01/31 16:56:04;;;;;;;1.60;1.50;;;10.10;99.90;11.40;102022.00;;;;5030717;28;20201;-64
2023/01/31 16:58:52;;;;;;;2.03;1.83;;;10.00;99.90;10.90;102009.00;;;;5033740;28;20281;-64
2023/01/31 17:01:30;;;;;;;2.17;1.97;;;9.70;99.90;11.70;102008.00;;;;5032173;28;20183;-64
2023/01/31 17:04:17;;;;;;;10.13;1.67;;;9.80;99.90;11.40;101989.00;;;;5019803;28;20192;-64
2023/01/31 17:06:50;;;;;;;0.47;0.47;;;9.90;99.90;12.20;102019.00;;;;5027806;28;20201;-64
2023/01/31 17:09:21;;;;;;;5.00;1.73;;;10.10;99.90;11.70;101938.00;;;;5017917;28;20190;-64
2023/01/31 17:11:47;;;;;;;0.30;0.30;;;10.00;99.90;12.40;101966.00;;;;5024064;28;20210;-64
2023/01/31 17:14:19;;;;;;;0.40;0.40;;;10.10;99.90;12.40;101999.00;;;;5032672;28;20240;-65
2023/01/31 17:16:53;;;;;;;0.40;0.40;;;10.30;99.90;13.30;102034.00;;;;5031543;28;20185;-65
2023/01/31 17:19:23;;;;;;;1.50;1.40;;;10.60;99.90;11.30;102028.00;;;;5034035;28;20190;-64
2023/01/31 17:21:58;;;;;;;1.33;1.23;;;10.10;99.90;10.90;101981.00;;;;5032806;28;20185;-64
2023/01/31 17:24:24;;;;;;;0.30;0.30;;;9.70;99.90;11.20;101995.00;;;;5030810;28;20201;-64
2023/01/31 17:26:50;;;;;;;12.33;2.33;;;9.50;99.90;12.00;101988.00;;;;5046032;28;20188;-64
2023/01/31 17:29:16;;;;;;;0.87;0.87;;;9.80;99.90;11.50;101999.00;;;;5031802;28;20724;-64
2023/01/31 17:32:10;;;;;;;0.30;0.30;;;9.70;99.90;12.00;101985.00;;;;5031291;28;20294;-64
2023/01/31 17:34:35;;;;;;;0.47;0.47;;;9.70;99.90;11.30;101997.00;;;;5031854;28;20598;-64
2023/01/31 17:37:08;;;;;;;2.00;1.40;;;9.60;99.90;11.40;102006.00;;;;5032434;28;20195;-64
2023/01/31 17:39:34;;;;;;;0.30;0.30;;;9.60;99.90;12.20;102011.00;;;;5032454;28;20194;-66
2023/01/31 17:42:00;;;;;;;0.30;0.30;;;9.80;99.90;11.70;102008.00;;;;5033624;28;20188;-66
2023/01/31 17:44:26;;;;;;;0.83;0.83;;;9.70;99.90;11.40;101989.00;;;;5029484;28;20243;-66
2023/01/31 17:46:55;;;;;;;1.80;1.57;;;9.50;99.90;11.50;101985.00;;;;5016000;28;20185;-66
2023/01/31 17:49:23;;;;;;;0.67;0.67;;;9.50;99.90;11.20;102006.00;;;;5032434;28;20202;-66
2023/01/31 17:51:49;;;;;;;4.10;1.30;;;9.30;99.90;11.40;101982.00;;;;5016048;28;20203;-66
2023/01/31 17:54:21;;;;;;;0.40;0.40;;;9.30;99.90;11.50;101998.00;;;;5031508;28;20182;-66
2023/01/31 17:56:55;;;;;;;0.83;0.83;;;9.40;99.90;10.80;101985.00;;;;5030609;28;20234;-66
2023/01/31 17:59:51;;;;;;;0.50;0.50;;;9.20;99.90;11.30;101974.00;;;;5032028;28;20198;-66
2023/01/31 18:02:19;;;;;;;2.27;2.00;;;9.10;99.90;11.30;101982.00;;;;5032882;28;20198;-66
2023/01/31 18:04:53;;;;;;;0.30;0.30;;;9.20;99.90;10.90;101966.00;;;;5036284;28;20251;-66
2023/01/31 18:07:40;;;;;;;1.30;1.23;;;9.20;99.90;10.90;101909.00;;;;5032201;28;20205;-66
2023/01/31 18:10:10;;;;;;;0.70;0.70;;;9.00;99.90;10.70;101963.00;;;;5031140;28;20218;-66
2023/01/31 18:12:58;;;;;;;0.40;0.40;;;9.00;99.90;10.30;101972.00;;;;5011657;28;20284;-66
2023/01/31 18:15:24;;;;;;;0.97;0.93;;;8.90;99.90;10.20;101979.00;;;;5014442;28;20596;-66
2023/01/31 18:18:13;;;;;;;3.70;2.20;;;8.80;99.90;10.60;101973.00;;;;5031368;28;20197;-67
2023/01/31 18:21:07;;;;;;;2.10;1.90;;;8.90;99.90;11.30;101967.00;;;;5031711;28;20244;-66
2023/01/31 18:23:53;;;;;;;2.63;1.90;;;9.00;99.90;10.70;101971.00;;;;5022585;28;20316;-66
2023/01/31 18:26:20;;;;;;;1.33;1.33;;;8.90;99.90;10.90;101894.00;;;;5031566;28;20216;-66
2023/01/31 18:28:49;;;;;;;13.87;3.07;;;9.10;99.90;11.30;101979.00;;;;5031547;28;20278;-66
2023/01/31 18:31:16;;;;;;;0.63;0.63;;;9.10;99.90;10.80;101959.00;;;;5030790;28;20189;-66
2023/01/31 18:33:46;;;;;;;3.70;1.90;;;9.00;99.90;10.60;101970.00;;;;5031293;28;20443;-66
2023/01/31 18:36:18;;;;;;;1.80;1.07;;;8.90;99.90;10.90;101969.00;;;;5039553;28;20533;-66
2023/01/31 18:38:46;;;;;;;1.70;1.27;;;8.90;99.90;10.60;101928.00;;;;5030999;28;20666;-66
2023/01/31 18:41:15;;;;;;;6.60;2.17;;;8.90;99.90;10.50;101954.00;;;;5031527;28;20196;-66
2023/01/31 18:43:50;;;;;;;1.23;1.13;;;8.80;99.90;10.70;101972.00;;;;5030485;28;20589;-66
2023/01/31 18:46:16;;;;;;;0.50;0.50;;;8.90;99.90;10.70;101933.00;;;;5020766;28;20186;-66
2023/01/31 18:48:48;;;;;;;0.50;0.50;;;8.90;99.90;10.90;101983.00;;;;5021683;28;20252;-66
2023/01/31 18:51:15;;;;;;;0.67;0.67;;;8.90;99.90;10.80;101989.00;;;;5024226;28;20328;-66
2023/01/31 18:54:40;;;;;;;1.50;1.40;;;8.90;99.90;10.80;101972.00;;;;5017636;28;20277;-65
2023/01/31 18:57:07;;;;;;;2.63;1.03;;;9.00;99.90;10.80;101994.00;;;;5029176;28;20232;-66
2023/01/31 19:00:14;;;;;;;1.77;1.53;;;8.90;99.90;11.60;101991.00;;;;5036347;28;20192;-66
2023/01/31 19:03:17;;;;;;;3.40;2.20;;;9.00;99.90;11.10;102003.00;;;;5021148;28;20189;-66
2023/01/31 19:05:43;;;;;;;1.70;1.60;;;9.20;99.90;11.50;101986.00;;;;5030694;28;20192;-66
2023/01/31 19:08:10;;;;;;;1.57;1.47;;;9.20;99.90;10.80;101999.00;;;;5035464;28;20616;-66
2023/01/31 19:10:36;;;;;;;1.43;1.33;;;9.00;99.90;10.80;101984.00;;;;5036126;28;20641;-65
2023/01/31 19:13:02;;;;;;;1.03;0.93;;;8.80;99.90;10.10;101987.00;;;;5034993;28;20219;-66
2023/01/31 19:15:28;;;;;;;1.27;1.17;;;8.60;99.90;10.30;101976.00;;;;5037084;28;20192;-66
2023/01/31 19:17:59;;;;;;;0.80;0.80;;;8.60;99.90;10.70;101996.00;;;;5030598;28;20214;-66
2023/01/31 19:20:33;;;;;;;2.47;1.47;;;8.70;99.90;10.80;101996.00;;;;5033896;28;20657;-66
2023/01/31 19:22:59;;;;;;;6.00;3.57;;;8.70;99.90;10.30;101992.00;;;;5034547;28;20203;-66
2023/01/31 19:25:38;;;;;;;2.80;2.60;;;8.60;99.90;10.10;101908.00;;;;5034747;28;20185;-65
2023/01/31 19:28:04;;;;;;;2.77;1.90;;;8.50;99.90;10.00;101992.00;;;;5035366;28;20297;-65
2023/01/31 19:30:30;;;;;;;0.70;0.70;;;8.40;99.90;10.60;102001.00;;;;5035998;28;20199;-66
2023/01/31 19:33:17;;;;;;;1.53;1.43;;;8.50;99.90;10.90;102012.00;;;;5036457;28;20226;-66
2023/01/31 19:36:14;;;;;;;2.27;2.17;;;8.60;99.90;10.70;101996.00;;;;5067485;28;20706;-66
2023/01/31 19:38:43;;;;;;;0.83;0.83;;;8.50;99.90;10.00;101999.00;;;;5018944;28;20191;-66
2023/01/31 19:41:17;;;;;;;0.40;0.40;;;8.40;99.90;10.00;101990.00;;;;5027541;28;20183;-66
2023/01/31 19:43:55;;;;;;;1.10;1.10;;;8.30;99.90;10.00;101997.00;;;;5032754;28;20194;-67
2023/01/31 19:46:30;;;;;;;0.50;0.50;;;8.30;99.90;9.90;101985.00;;;;5034061;28;20277;-66
2023/01/31 19:49:07;;;;;;;2.20;1.43;;;8.20;99.90;10.00;101996.00;;;;5034756;28;20283;-66
2023/01/31 19:51:38;;;;;;;1.93;1.27;;;8.30;99.90;10.10;101980.00;;;;5014804;28;20183;-66
2023/01/31 19:54:14;;;;;;;2.57;2.37;;;8.20;99.90;10.20;101907.00;;;;5035731;28;20587;-66
2023/01/31 19:56:40;;;;;;;3.43;3.13;;;8.30;99.90;9.80;101992.00;;;;5033610;28;20248;-66
2023/01/31 19:59:07;;;;;;;4.03;2.70;;;8.30;99.90;9.40;101990.00;;;;5031306;28;20219;-66
2023/01/31 20:01:41;;;;;;;1.17;0.67;;;8.10;99.90;9.60;101975.00;;;;5035554;28;20189;-66
2023/01/31 20:04:10;;;;;;;3.37;3.10;;;8.00;99.90;9.30;101984.00;;;;5029850;28;20656;-66
2023/01/31 20:06:56;;;;;;;13.50;6.03;;;8.00;99.90;9.80;101979.00;;;;5035610;28;20200;-66
2023/01/31 20:09:29;;;;;;;1.20;1.20;;;8.00;99.90;10.80;101995.00;;;;5034232;28;20199;-66
2023/01/31 20:11:55;;;;;;;0.70;0.70;;;8.30;99.90;10.70;101999.00;;;;5035018;28;20215;-66
2023/01/31 20:14:23;;;;;;;0.70;0.70;;;8.40;99.90;10.70;102009.00;;;;5033985;28;20179;-66
2023/01/31 20:16:50;;;;;;;2.07;1.87;;;8.50;99.90;9.90;102001.00;;;;5031801;28;20191;-66
2023/01/31 20:19:15;;;;;;;0.50;0.50;;;8.20;99.90;9.70;102003.00;;;;5063084;28;20201;-66
2023/01/31 20:21:48;;;;;;;4.43;0.97;;;8.10;99.90;9.60;101996.00;;;;5024145;28;20542;-66